Weather Data

Pearl Creek Farm: 8878 N Farm Road 75, Walnut Grove MO 65770

<== Previous Day (Wednesday 15 Jan 2014) | Next Day (Friday 17 Jan 2014) ==>

Summary Precipitation Data For Thursday 16 January 2014

ElementValueUnits
Precipitation0"
Notes(none)
SourcePearl Creek Farm

Summary Temperature Data For Thursday 16 January 2014

ElementValueUnits
High Temperature50 oF
Low Temperature32 oF
Average Temperature41 oF
High Humidity75 %
Low Humidity42 %
Average Humidity57 %
SourcePearl Creek Farm

Detail Temperature Data For Thursday 16 January 2014

Date / TimeTemp (F)RH (%)Dew Pt (F)Report Date / TimeSource
2014-01-16 00:00:00 34 64 23.0 2014-02-09 14:43:36 Pearl Creek Farm
2014-01-16 00:30:00 34 63 22.8 2014-02-09 14:43:36 Pearl Creek Farm
2014-01-16 01:00:00 35 63 23.7 2014-02-09 14:43:36 Pearl Creek Farm
2014-01-16 01:30:00 35 63 23.7 2014-02-09 14:43:36 Pearl Creek Farm
2014-01-16 02:00:00 36 63 24.7 2014-02-09 14:43:36 Pearl Creek Farm
2014-01-16 02:30:00 36 64 24.9 2014-02-09 14:43:36 Pearl Creek Farm
2014-01-16 03:00:00 37 64 26.0 2014-02-09 14:43:36 Pearl Creek Farm
2014-01-16 03:30:00 36 65 25.4 2014-02-09 14:43:36 Pearl Creek Farm
2014-01-16 04:00:00 38 67 27.9 2014-02-09 14:43:36 Pearl Creek Farm
2014-01-16 04:30:00 42 60 29.0 2014-02-09 14:43:36 Pearl Creek Farm
2014-01-16 05:00:00 41 60 28.0 2014-02-09 14:43:36 Pearl Creek Farm
2014-01-16 05:30:00 40 61 27.7 2014-02-09 14:43:36 Pearl Creek Farm
2014-01-16 06:00:00 39 65 28.1 2014-02-09 14:43:36 Pearl Creek Farm
2014-01-16 06:30:00 37 67 27.1 2014-02-09 14:43:36 Pearl Creek Farm
2014-01-16 07:00:00 35 70 26.1 2014-02-09 14:43:36 Pearl Creek Farm
2014-01-16 07:30:00 32 75 24.8 2014-02-09 14:43:36 Pearl Creek Farm
2014-01-16 08:00:00 34 75 26.9 2014-02-09 14:43:36 Pearl Creek Farm
2014-01-16 08:30:00 38 71 29.5 2014-02-09 14:43:36 Pearl Creek Farm
2014-01-16 09:00:00 40 67 29.8 2014-02-09 14:43:36 Pearl Creek Farm
2014-01-16 09:30:00 42 66 31.5 2014-02-09 14:43:36 Pearl Creek Farm
2014-01-16 10:00:00 44 62 31.6 2014-02-09 14:43:36 Pearl Creek Farm
2014-01-16 10:30:00 46 57 31.7 2014-02-09 14:43:36 Pearl Creek Farm
2014-01-16 11:00:00 47 54 31.3 2014-02-09 14:43:36 Pearl Creek Farm
2014-01-16 11:30:00 48 49 29.5 2014-02-09 14:43:36 Pearl Creek Farm
2014-01-16 12:00:00 48 47 28.8 2014-02-09 14:43:36 Pearl Creek Farm
2014-01-16 12:30:00 49 43 27.2 2014-02-09 14:43:36 Pearl Creek Farm
2014-01-16 13:00:00 48 46 28.0 2014-02-09 14:43:36 Pearl Creek Farm
2014-01-16 13:30:00 49 45 28.4 2014-02-09 14:43:36 Pearl Creek Farm
2014-01-16 14:00:00 48 46 28.0 2014-02-09 14:43:36 Pearl Creek Farm
2014-01-16 14:30:00 50 42 27.6 2014-02-09 14:43:36 Pearl Creek Farm
2014-01-16 15:00:00 48 43 26.3 2014-02-09 14:43:36 Pearl Creek Farm
2014-01-16 15:30:00 48 42 25.8 2014-02-09 14:43:36 Pearl Creek Farm
2014-01-16 16:00:00 47 43 25.4 2014-02-09 14:43:36 Pearl Creek Farm
2014-01-16 16:30:00 47 42 24.9 2014-02-09 14:43:36 Pearl Creek Farm
2014-01-16 17:00:00 46 43 24.5 2014-02-09 14:43:36 Pearl Creek Farm
2014-01-16 17:30:00 44 45 24.1 2014-02-09 14:43:36 Pearl Creek Farm
2014-01-16 18:00:00 42 51 25.2 2014-02-09 14:43:36 Pearl Creek Farm
2014-01-16 18:30:00 42 54 26.4 2014-02-09 14:43:36 Pearl Creek Farm
2014-01-16 19:00:00 41 55 26.1 2014-02-09 14:43:36 Pearl Creek Farm
2014-01-16 19:30:00 41 58 27.2 2014-02-09 14:43:36 Pearl Creek Farm
2014-01-16 20:00:00 40 59 26.9 2014-02-09 14:43:36 Pearl Creek Farm
2014-01-16 20:30:00 39 59 25.9 2014-02-09 14:43:36 Pearl Creek Farm
2014-01-16 21:00:00 38 57 24.0 2014-02-09 14:43:36 Pearl Creek Farm
2014-01-16 21:30:00 37 55 22.4 2014-02-09 14:43:36 Pearl Creek Farm
2014-01-16 22:00:00 37 61 24.8 2014-02-09 14:43:36 Pearl Creek Farm
2014-01-16 22:30:00 34 62 22.2 2014-02-09 14:43:36 Pearl Creek Farm
2014-01-16 23:00:00 33 62 21.3 2014-02-09 14:43:36 Pearl Creek Farm
2014-01-16 23:30:00 32 60 19.5 2014-02-09 14:43:36 Pearl Creek Farm

A total of 48 rows are displayed.